Time;durP1;ratioP1;P1;durP2;ratioP2;P2;SDS_P1;SDS_P2;PMS_P1;PMS_P2;Temp;Humidity;BMP_temperature;BMP_pressure;BME280_temperature;BME280_humidity;BME280_pressure;Samples;Min_cycle;Max_cycle;Signal;HPM_P1;HPM_P2
2022/03/06 00:03:41;;;;;;;;;;;;;;;1.68;61.68;101483.94;10218480;29;20350;-57
2022/03/06 00:08:44;;;;;;;;;;;;;;;1.69;60.75;101491.69;10218272;29;19934;-57
2022/03/06 00:13:48;;;;;;;;;;;;;;;1.69;61.06;101490.84;10217968;29;19922;-59
2022/03/06 00:18:54;;;;;;;;;;;;;;;1.70;58.42;101492.56;10218194;29;20017;-60
2022/03/06 00:23:57;;;;;;;;;;;;;;;1.72;58.19;101485.84;10217040;29;20275;-58
2022/03/06 00:29:03;;;;;;;;;;;;;;;1.73;54.28;101488.47;10217871;29;19950;-57
2022/03/06 00:34:06;;;;;;;;;;;;;;;1.73;54.70;101480.78;10217486;29;20009;-56
2022/03/06 00:39:09;;;;;;;;;;;;;;;1.79;54.89;101487.88;10217347;29;20229;-61
2022/03/06 00:44:13;;;;;;;;;;;;;;;1.77;53.65;101480.13;10217390;29;20037;-60
2022/03/06 00:49:16;;;;;;;;;;;;;;;1.86;55.88;101477.97;10217044;29;19922;-53
2022/03/06 00:54:20;;;;;;;;;;;;;;;1.82;54.86;101475.19;10216925;29;19923;-62
2022/03/06 00:59:25;;;;;;;;;;;;;;;1.86;55.74;101470.28;10217002;29;19933;-61
2022/03/06 01:04:28;;;;;;;;;;;;;;;1.79;54.31;101473.41;10216817;29;19949;-62
2022/03/06 01:09:31;;;;;;;;;;;;;;;1.85;56.22;101472.75;10217425;29;19922;-59
2022/03/06 01:14:35;;;;;;;;;;;;;;;1.78;54.20;101463.94;10216760;29;19922;-60
2022/03/06 01:19:38;;;;;;;;;;;;;;;1.80;53.61;101458.91;10216401;29;19933;-60
2022/03/06 01:24:42;;;;;;;;;;;;;;;1.78;55.95;101453.72;10216548;29;19922;-60
2022/03/06 01:29:46;;;;;;;;;;;;;;;1.86;56.22;101443.81;10216571;29;20212;-60
2022/03/06 01:34:49;;;;;;;;;;;;;;;1.92;56.82;101454.28;10216531;29;19923;-60
2022/03/06 01:39:52;;;;;;;;;;;;;;;1.77;55.57;101451.97;10223885;29;19929;-61
2022/03/06 01:44:57;;;;;;;;;;;;;;;1.79;57.58;101455.47;10223766;29;19945;-59
2022/03/06 01:50:00;;;;;;;;;;;;;;;1.78;59.01;101456.28;10223623;29;19933;-62
2022/03/06 01:55:03;;;;;;;;;;;;;;;1.82;60.03;101442.81;10223670;29;19922;-61
2022/03/06 02:00:09;;;;;;;;;;;;;;;1.73;59.75;101447.53;10223277;29;19926;-57
2022/03/06 02:05:12;;;;;;;;;;;;;;;1.70;60.71;101451.63;10223544;29;19933;-64
2022/03/06 02:10:16;;;;;;;;;;;;;;;1.66;59.70;101448.06;10222942;29;19937;-64
2022/03/06 02:15:20;;;;;;;;;;;;;;;1.63;59.83;101437.72;10222823;29;20373;-56
2022/03/06 02:20:24;;;;;;;;;;;;;;;1.59;59.66;101438.38;10222331;29;20343;-60
2022/03/06 02:25:29;;;;;;;;;;;;;;;1.58;61.48;101435.78;10222646;29;19923;-60
2022/03/06 02:30:34;;;;;;;;;;;;;;;1.66;62.24;101429.28;10222148;29;19933;-62
2022/03/06 02:35:37;;;;;;;;;;;;;;;1.65;61.77;101432.66;10221966;29;19923;-60
2022/03/06 02:40:44;;;;;;;;;;;;;;;1.60;61.48;101432.47;10221822;29;19966;-58
2022/03/06 02:45:47;;;;;;;;;;;;;;;1.61;63.21;101425.66;10221681;29;20350;-58
2022/03/06 02:50:51;;;;;;;;;;;;;;;1.53;61.66;101433.03;10220222;29;19922;-60
2022/03/06 02:55:56;;;;;;;;;;;;;;;1.56;63.07;101425.47;10221271;29;20252;-60
2022/03/06 03:00:59;;;;;;;;;;;;;;;1.64;61.94;101428.38;10221432;29;19923;-61
2022/03/06 03:06:02;;;;;;;;;;;;;;;1.65;62.99;101427.53;10220947;29;19923;-60
2022/03/06 03:11:06;;;;;;;;;;;;;;;1.60;62.58;101429.03;10220778;29;19923;-60
2022/03/06 03:16:09;;;;;;;;;;;;;;;1.62;63.62;101428.31;10220669;29;19922;-60
2022/03/06 03:21:15;;;;;;;;;;;;;;;1.55;63.63;101427.97;10220400;29;19997;-60
2022/03/06 03:26:20;;;;;;;;;;;;;;;1.54;63.47;101423.66;10220282;29;20006;-61
2022/03/06 03:31:23;;;;;;;;;;;;;;;1.48;61.56;101431.97;10220325;29;19973;-57
2022/03/06 03:36:26;;;;;;;;;;;;;;;1.53;62.89;101422.78;10219646;29;19930;-58
2022/03/06 03:41:30;;;;;;;;;;;;;;;1.54;59.55;101428.75;10219403;29;19927;-61
2022/03/06 03:46:33;;;;;;;;;;;;;;;1.51;61.04;101424.41;10219559;29;20304;-62
2022/03/06 03:51:36;;;;;;;;;;;;;;;1.50;60.47;101425.19;10219181;29;19926;-62
2022/03/06 03:56:42;;;;;;;;;;;;;;;1.52;61.82;101426.13;10219212;29;19933;-63
2022/03/06 04:01:45;;;;;;;;;;;;;;;1.44;61.68;101440.28;10218724;29;20267;-59
2022/03/06 04:06:49;;;;;;;;;;;;;;;1.37;62.08;101435.72;10218782;29;19922;-59
2022/03/06 04:11:53;;;;;;;;;;;;;;;1.31;61.35;101445.69;10218460;29;19933;-60
2022/03/06 04:16:56;;;;;;;;;;;;;;;1.30;61.13;101441.38;10218462;29;20236;-61
2022/03/06 04:21:59;;;;;;;;;;;;;;;1.26;60.29;101446.28;10218112;29;20263;-58
2022/03/06 04:27:04;;;;;;;;;;;;;;;1.21;63.02;101440.94;10217991;29;19922;-61
2022/03/06 04:32:07;;;;;;;;;;;;;;;1.22;62.71;101444.41;10217652;29;20255;-61
2022/03/06 04:37:10;;;;;;;;;;;;;;;1.19;62.01;101447.72;10217727;29;19923;-61
2022/03/06 04:42:15;;;;;;;;;;;;;;;1.22;58.13;101444.41;10217481;29;19933;-61
2022/03/06 04:47:18;;;;;;;;;;;;;;;1.24;56.91;101445.34;10217128;29;19923;-62
2022/03/06 04:52:21;;;;;;;;;;;;;;;1.19;56.94;101438.34;10216837;29;19933;-61
2022/03/06 04:57:25;;;;;;;;;;;;;;;1.17;58.88;101433.97;10216993;29;20229;-60
2022/03/06 05:02:28;;;;;;;;;;;;;;;1.21;58.15;101440.09;10216931;29;20055;-61
2022/03/06 05:07:32;;;;;;;;;;;;;;;1.31;59.39;101443.13;10217004;29;19949;-58
2022/03/06 05:12:36;;;;;;;;;;;;;;;1.26;56.91;101438.63;10221529;29;19923;-58
2022/03/06 05:17:40;;;;;;;;;;;;;;;1.25;59.36;101435.19;10225022;29;19929;-62
2022/03/06 05:22:43;;;;;;;;;;;;;;;1.23;59.51;101434.22;10225054;29;19933;-61
2022/03/06 05:27:47;;;;;;;;;;;;;;;1.25;58.26;101434.28;10224375;29;19922;-60
2022/03/06 05:32:52;;;;;;;;;;;;;;;1.22;58.60;101434.16;10224490;29;20064;-61
2022/03/06 05:37:55;;;;;;;;;;;;;;;1.24;58.68;101430.88;10224195;29;20336;-60
2022/03/06 05:43:00;;;;;;;;;;;;;;;1.26;58.65;101426.69;10223742;29;19929;-62
2022/03/06 05:48:03;;;;;;;;;;;;;;;1.32;58.03;101431.19;10223706;29;19922;-57
2022/03/06 05:53:06;;;;;;;;;;;;;;;1.36;58.37;101436.53;10223490;29;19922;-59
2022/03/06 05:58:10;;;;;;;;;;;;;;;1.35;58.10;101437.31;9901373;28;10000222;-64
2022/03/06 06:03:14;;;;;;;;;;;;;;;1.41;55.88;101431.63;10259556;28;19934;-66
2022/03/06 06:08:17;;;;;;;;;;;;;;;1.25;55.27;101427.50;10259600;28;19928;-65
2022/03/06 06:13:21;;;;;;;;;;;;;;;1.24;55.82;101417.22;10258901;28;20476;-66
2022/03/06 06:18:26;;;;;;;;;;;;;;;1.32;55.29;101418.41;10258987;28;19953;-67
2022/03/06 06:23:30;;;;;;;;;;;;;;;1.57;56.83;101419.53;10258960;28;20609;-72
2022/03/06 06:28:38;;;;;;;;;;;;;;;1.60;57.67;101412.03;10258696;28;19932;-69
2022/03/06 06:33:41;;;;;;;;;;;;;;;1.52;58.43;101407.38;10259248;28;19926;-67
2022/03/06 06:38:44;;;;;;;;;;;;;;;1.57;55.65;101411.88;10258205;28;19923;-66
2022/03/06 06:43:49;;;;;;;;;;;;;;;1.58;55.40;101411.06;10258683;28;19922;-67
2022/03/06 06:48:53;;;;;;;;;;;;;;;1.58;55.82;101403.41;10258407;28;19922;-65
2022/03/06 06:53:56;;;;;;;;;;;;;;;1.46;54.72;101414.78;10261345;28;20274;-67
2022/03/06 06:59:01;;;;;;;;;;;;;;;1.55;54.70;101410.94;10256813;28;20443;-65
2022/03/06 07:04:04;;;;;;;;;;;;;;;1.63;54.76;101417.25;10257459;28;20410;-66
2022/03/06 07:09:07;;;;;;;;;;;;;;;1.51;54.16;101413.28;10257284;29;19930;-70
2022/03/06 07:14:12;;;;;;;;;;;;;;;1.55;56.04;101416.06;10257024;28;19922;-65
2022/03/06 07:19:17;;;;;;;;;;;;;;;1.46;55.00;101412.22;10256750;28;19922;-64
2022/03/06 07:24:20;;;;;;;;;;;;;;;1.46;53.84;101409.66;10256545;29;20392;-66
2022/03/06 07:29:25;;;;;;;;;;;;;;;1.43;56.48;101409.53;10256340;29;19932;-63
2022/03/06 07:34:28;;;;;;;;;;;;;;;1.67;56.78;101401.22;10255889;28;19922;-67
2022/03/06 07:39:31;;;;;;;;;;;;;;;1.95;53.89;101401.53;10255961;28;19926;-68
2022/03/06 07:44:36;;;;;;;;;;;;;;;1.91;52.41;101399.69;10256495;28;19922;-64
2022/03/06 07:49:39;;;;;;;;;;;;;;;2.08;51.71;101398.69;10255520;28;19933;-69
2022/03/06 07:54:42;;;;;;;;;;;;;;;2.04;50.66;101404.47;10255588;29;19922;-65
2022/03/06 07:59:47;;;;;;;;;;;;;;;2.30;50.42;101403.84;10255085;29;19997;-68
2022/03/06 08:04:50;;;;;;;;;;;;;;;2.53;51.29;101398.72;10255205;28;19926;-66
2022/03/06 08:09:53;;;;;;;;;;;;;;;2.78;50.25;101392.03;10255171;28;20369;-66
2022/03/06 08:14:57;;;;;;;;;;;;;;;2.90;50.78;101396.75;10254416;28;19926;-67
2022/03/06 08:20:00;;;;;;;;;;;;;;;2.82;51.54;101404.16;10254613;28;19922;-67
2022/03/06 08:25:04;;;;;;;;;;;;;;;2.72;50.40;101403.75;10254458;28;19922;-65
2022/03/06 08:30:09;;;;;;;;;;;;;;;2.76;50.09;101410.75;10254256;28;20270;-68
2022/03/06 08:35:12;;;;;;;;;;;;;;;2.79;49.30;101409.19;10254339;28;20270;-68
2022/03/06 08:40:15;;;;;;;;;;;;;;;2.84;49.16;101402.53;10253688;28;20297;-67
2022/03/06 08:45:20;;;;;;;;;;;;;;;3.19;49.27;101399.53;10253018;28;19922;-67
2022/03/06 08:50:23;;;;;;;;;;;;;;;3.23;49.47;101401.41;10253897;28;19933;-65
2022/03/06 08:55:26;;;;;;;;;;;;;;;3.03;48.25;101404.06;10252498;28;19922;-69
2022/03/06 09:00:30;;;;;;;;;;;;;;;3.34;48.20;101397.56;10213707;29;19927;-66
2022/03/06 09:05:38;;;;;;;;;;;;;;;3.61;48.89;101382.22;10213708;29;20021;-66
2022/03/06 09:10:41;;;;;;;;;;;;;;;3.50;48.38;101391.25;10213275;29;19923;-69
2022/03/06 09:15:46;;;;;;;11.07;5.28;;;;;;;3.56;48.99;101388.88;10213264;29;20025;-67
2022/03/06 09:20:50;;;;;;;9.47;4.50;;;;;;;3.92;48.94;101385.00;10213375;29;20657;-66
2022/03/06 09:25:54;;;;;;;8.00;4.63;;;;;;;4.34;48.49;101377.78;10212936;29;20207;-66
2022/03/06 09:30:58;;;;;;;9.43;4.80;;;;;;;3.98;46.93;101372.38;10213419;29;20947;-65
2022/03/06 09:36:02;;;;;;;7.63;4.10;;;;;;;4.20;47.41;101373.91;10214098;29;20205;-68
2022/03/06 09:41:05;;;;;;;8.17;4.40;;;;;;;3.96;46.33;101373.13;10215671;29;20233;-66
2022/03/06 09:46:10;;;;;;;8.60;4.43;;;;;;;3.63;46.05;101367.75;10215928;29;20201;-68
2022/03/06 09:51:13;;;;;;;9.20;4.73;;;;;;;3.71;48.63;101376.56;10215820;29;20211;-71
2022/03/06 09:56:17;;;;;;;9.17;4.43;;;;;;;3.78;50.91;101367.41;10214634;29;20309;-76
2022/03/06 10:01:22;;;;;;;7.50;4.53;;;;;;;4.73;47.86;101355.84;10218836;29;20228;-73
2022/03/06 10:06:25;;;;;;;9.67;5.03;;;;;;;5.82;43.06;101346.81;10219953;29;20182;-72
2022/03/06 10:11:29;;;;;;;8.40;4.33;;;;;;;5.91;43.14;101347.09;10219322;29;20198;-74
2022/03/06 10:16:34;;;;;;;9.60;4.53;;;;;;;6.32;42.06;101346.34;10219318;29;20267;-74
2022/03/06 10:21:39;;;;;;;9.37;4.63;;;;;;;5.92;43.24;101350.53;10219239;29;20552;-74
2022/03/06 10:26:43;;;;;;;7.87;3.80;;;;;;;5.15;43.38;101345.91;10218927;29;20181;-74
2022/03/06 10:31:58;;;;;;;8.90;4.43;;;;;;;4.98;43.00;101340.31;10218686;29;20205;-74
2022/03/06 10:37:02;;;;;;;8.40;4.65;;;;;;;4.80;44.86;101344.06;10216093;29;20761;-72
2022/03/06 10:42:11;;;;;;;7.70;4.27;;;;;;;5.00;43.93;101332.63;10218027;29;20303;-73
2022/03/06 10:47:16;;;;;;;7.60;4.17;;;;;;;5.20;43.61;101328.88;10218726;29;20232;-75
2022/03/06 10:52:22;;;;;;;36.43;17.17;;;;;;;5.45;44.27;101316.69;10218548;29;20201;-74
2022/03/06 10:57:26;;;;;;;8.03;4.03;;;;;;;6.37;42.96;101310.34;10217810;29;20193;-73
2022/03/06 11:02:31;;;;;;;8.90;4.43;;;;;;;7.68;42.30;101297.47;10218032;29;20527;-73
2022/03/06 11:07:35;;;;;;;11.90;4.43;;;;;;;8.63;41.76;101288.56;10216586;29;20673;-73
2022/03/06 11:12:39;;;;;;;10.70;4.03;;;;;;;9.68;40.28;101284.47;10216899;29;20574;-73
2022/03/06 11:17:44;;;;;;;7.90;4.67;;;;;;;8.54;40.18;101284.09;9893967;28;10000065;-70
2022/03/06 11:22:55;;;;;;;6.60;3.67;;;;;;;8.57;41.78;101281.56;10256223;28;20212;-71
2022/03/06 11:28:17;;;;;;;7.30;3.73;;;;;;;7.23;41.60;101276.00;10256323;28;20200;-75
2022/03/06 11:33:22;;;;;;;8.67;3.97;;;;;;;6.36;44.15;101277.69;10256197;28;20195;-72
2022/03/06 11:38:40;;;;;;;12.83;6.20;;;;;;;5.95;43.23;101268.16;10255637;28;20858;-70
2022/03/06 11:43:48;;;;;;;9.67;3.97;;;;;;;5.68;45.20;101265.78;10255520;28;20723;-72
2022/03/06 11:49:15;;;;;;;7.63;3.30;;;;;;;5.55;44.88;101259.47;10254901;28;20208;-72
2022/03/06 11:54:23;;;;;;;8.50;3.77;;;;;;;5.90;44.83;101251.75;10255049;29;20219;-73
2022/03/06 11:59:35;;;;;;;16.63;8.60;;;;;;;6.14;42.82;101245.44;10254621;28;20216;-72
2022/03/06 12:04:44;;;;;;;7.80;3.80;;;;;;;7.35;41.80;101232.31;10254528;28;20294;-73
2022/03/06 12:09:51;;;;;;;7.00;3.30;;;;;;;6.76;42.94;101221.81;10254383;28;20665;-75
2022/03/06 12:14:57;;;;;;;7.83;3.77;;;;;;;6.39;45.02;101219.31;10254102;28;20330;-72
2022/03/06 12:20:25;;;;;;;8.00;3.67;;;;;;;6.31;44.42;101202.84;10215989;28;20232;-74
2022/03/06 12:25:33;;;;;;;10.07;3.87;;;;;;;6.08;44.47;101216.06;10214414;29;20233;-75
2022/03/06 12:30:38;;;;;;;7.50;3.57;;;;;;;5.69;45.29;101213.44;10213937;29;20217;-72
2022/03/06 12:35:43;;;;;;;8.57;4.00;;;;;;;5.57;45.19;101213.16;10214248;29;20228;-70
2022/03/06 12:40:46;;;;;;;7.50;4.03;;;;;;;5.20;46.52;101205.38;10213464;29;20228;-71
2022/03/06 12:45:51;;;;;;;7.03;3.60;;;;;;;5.29;45.67;101201.34;10213606;29;20217;-74
2022/03/06 12:50:56;;;;;;;9.27;4.20;;;;;;;6.24;44.72;101180.34;10213651;29;20221;-73
2022/03/06 12:56:00;;;;;;;10.77;5.00;;;;;;;6.25;44.20;101174.34;10244304;28;20220;-75
2022/03/06 13:01:07;;;;;;;6.67;3.67;;;;;;;5.95;45.17;101171.16;10253060;29;20242;-71
2022/03/06 13:06:16;;;;;;;9.20;3.97;;;;;;;6.06;46.10;101177.38;10252630;29;20307;-71
2022/03/06 13:11:20;;;;;;;9.93;3.67;;;;;;;5.63;43.35;101175.56;10253034;29;20302;-73
2022/03/06 13:16:26;;;;;;;6.63;3.73;;;;;;;5.24;44.31;101172.06;10243111;28;20232;-72
2022/03/06 13:21:31;;;;;;;9.40;4.50;;;;;;;5.41;44.90;101177.59;10225575;28;20238;-71
2022/03/06 13:26:35;;;;;;;7.27;3.90;;;;;;;5.32;47.00;101165.38;10250554;29;20216;-71
2022/03/06 13:31:43;;;;;;;7.30;3.73;;;;;;;5.30;46.25;101163.59;10252500;28;20223;-72
2022/03/06 13:36:48;;;;;;;7.40;3.83;;;;;;;5.18;45.00;101159.03;10258190;29;20359;-73
2022/03/06 13:41:54;;;;;;;9.80;4.60;;;;;;;5.17;45.48;101164.13;10259258;29;20718;-70
2022/03/06 13:46:57;;;;;;;10.37;5.97;;;;;;;5.36;43.98;101153.44;10258261;29;20230;-72
2022/03/06 13:52:11;;;;;;;11.23;5.27;;;;;;;5.28;44.87;101158.41;10257822;29;20286;-71
2022/03/06 13:57:15;;;;;;;10.40;5.27;;;;;;;5.52;45.95;101161.56;10256741;29;20515;-75
2022/03/06 14:02:25;;;;;;;10.80;4.23;;;;;;;5.43;44.59;101160.47;10258778;29;20303;-74
2022/03/06 14:07:30;;;;;;;8.87;4.73;;;;;;;5.29;43.83;101167.00;10264559;28;20215;-76
2022/03/06 14:12:35;;;;;;;11.37;4.93;;;;;;;4.71;45.10;101164.69;10297921;28;20223;-73
2022/03/06 14:17:38;;;;;;;12.37;5.90;;;;;;;4.92;45.41;101164.38;10297411;28;20270;-69
2022/03/06 14:22:43;;;;;;;10.97;6.23;;;;;;;4.69;46.02;101156.91;10280712;28;20384;-71
2022/03/06 14:27:46;;;;;;;12.20;6.90;;;;;;;4.57;46.34;101154.03;10257330;28;20243;-67
2022/03/06 14:32:49;;;;;;;13.00;7.17;;;;;;;4.64;46.14;101150.78;10257652;28;20184;-69
2022/03/06 14:37:55;;;;;;;15.70;7.93;;;;;;;4.63;46.27;101148.19;10257492;28;20200;-66
2022/03/06 14:42:59;;;;;;;16.23;8.90;;;;;;;4.56;46.70;101152.28;10252548;28;20216;-68
2022/03/06 14:48:02;;;;;;;16.17;9.63;;;;;;;4.47;47.35;101159.75;10240328;29;20192;-71
2022/03/06 14:53:07;;;;;;;18.73;10.20;;;;;;;4.49;47.94;101163.25;10257333;28;20199;-69
2022/03/06 14:58:10;;;;;;;15.37;9.93;;;;;;;4.59;48.68;101157.50;10259537;28;20199;-66
2022/03/06 15:03:14;;;;;;;14.60;9.23;;;;;;;4.56;47.49;101156.56;10255849;28;20236;-69
2022/03/06 15:08:19;;;;;;;17.27;9.83;;;;;;;4.35;47.64;101154.28;10256645;28;20200;-67
2022/03/06 15:13:22;;;;;;;16.03;9.97;;;;;;;4.30;48.98;101152.41;10256040;28;20699;-66
2022/03/06 15:18:26;;;;;;;16.23;9.83;;;;;;;4.15;49.02;101158.00;10255877;28;20243;-70
2022/03/06 15:23:30;;;;;;;16.67;9.87;;;;;;;3.94;49.36;101156.50;10251115;28;20217;-66
2022/03/06 15:28:34;;;;;;;19.50;11.75;;;;;;;3.86;49.56;101155.41;10213348;29;20489;-68
2022/03/06 15:33:38;;;;;;;19.73;11.67;;;;;;;3.91;51.32;101149.59;10213718;29;20715;-67
2022/03/06 15:38:42;;;;;;;17.20;9.80;;;;;;;3.72;51.74;101161.84;10215648;29;20679;-67
2022/03/06 15:43:46;;;;;;;18.73;8.77;;;;;;;3.80;50.41;101150.97;10215403;29;20229;-68
2022/03/06 15:48:49;;;;;;;16.30;8.53;;;;;;;3.71;49.93;101149.84;10215541;29;20678;-69
2022/03/06 15:53:54;;;;;;;15.45;8.75;;;;;;;3.48;50.03;101157.72;10212176;29;20443;-67
2022/03/06 15:58:57;;;;;;;16.73;9.13;;;;;;;3.49;50.95;101149.19;10212490;29;20421;-68
2022/03/06 16:04:00;;;;;;;30.48;16.92;;;;;;;3.46;51.58;101161.03;10218160;29;20420;-68
2022/03/06 16:09:05;;;;;;;15.10;9.00;;;;;;;3.47;50.20;101160.22;10254447;28;20232;-68
2022/03/06 16:14:11;;;;;;;;;;;;;;;3.30;49.78;101163.94;10254707;28;20122;-66
2022/03/06 16:19:14;;;;;;;;;;;;;;;3.23;49.90;101160.31;10222983;28;19936;-66
2022/03/06 16:24:19;;;;;;;;;;;;;;;3.07;49.60;101157.22;10214507;29;19923;-67
2022/03/06 16:29:22;;;;;;;;;;;;;;;3.09;50.71;101163.28;10214245;29;20263;-71
2022/03/06 16:34:26;;;;;;;;;;;;;;;3.03;49.55;101160.50;10213879;29;20243;-66
2022/03/06 16:39:32;;;;;;;;;;;;;;;2.98;50.35;101156.91;10214075;29;19923;-67
2022/03/06 16:44:36;;;;;;;;;;;;;;;2.96;50.14;101164.56;10214176;29;19923;-65
2022/03/06 16:49:39;;;;;;;;;;;;;;;2.91;50.86;101160.09;10213867;29;19928;-65
2022/03/06 16:54:44;;;;;;;;;;;;;;;2.85;51.32;101165.00;10239827;29;19936;-67
2022/03/06 16:59:47;;;;;;;;;;;;;;;2.80;51.24;101164.88;10253316;28;19922;-66
2022/03/06 17:04:50;;;;;;;;;;;;;;;2.80;51.62;101166.53;10232021;28;19922;-68
2022/03/06 17:09:55;;;;;;;;;;;;;;;2.77;51.68;101164.75;10212437;29;19922;-68
2022/03/06 17:14:58;;;;;;;;;;;;;;;2.79;52.34;101169.94;10213194;29;20363;-68
2022/03/06 17:20:01;;;;;;;;;;;;;;;2.79;51.99;101169.94;10250500;29;20617;-71
2022/03/06 17:25:06;;;;;;;;;;;;;;;2.75;52.12;101171.53;10252375;28;20085;-68
2022/03/06 17:30:10;;;;;;;;;;;;;;;2.83;51.47;101170.09;10253386;29;19926;-69
2022/03/06 17:35:13;;;;;;;;;;;;;;;2.87;52.92;101171.94;10228940;28;19958;-69
2022/03/06 17:40:19;;;;;;;;;;;;;;;2.85;51.79;101175.25;10247640;29;19926;-67
2022/03/06 17:45:22;;;;;;;;;;;;;;;2.88;51.62;101170.25;10252389;28;19926;-65
2022/03/06 17:50:26;;;;;;;;;;;;;;;2.74;52.41;101172.38;10252697;28;20014;-69
2022/03/06 17:55:30;;;;;;;;;;;;;;;2.79;51.79;101169.94;10252397;29;20371;-67
2022/03/06 18:00:34;;;;;;;;;;;;;;;2.72;53.03;101170.56;10251872;29;19989;-68
2022/03/06 18:05:37;;;;;;;;;;;;;;;2.78;52.30;101163.09;10252299;29;20017;-68
2022/03/06 18:10:42;;;;;;;;;;;;;;;2.62;52.63;101169.38;10252111;29;19926;-66
2022/03/06 18:15:45;;;;;;;;;;;;;;;2.62;52.67;101168.50;10252188;29;19922;-70
2022/03/06 18:21:11;;;;;;;;;;;;;;;2.62;53.44;101181.31;10258522;28;20009;-68
2022/03/06 18:26:17;;;;;;;;;;;;;;;2.71;54.46;101176.50;10258955;28;19926;-69
2022/03/06 18:31:38;;;;;;;;;;;;;;;2.68;54.09;101179.81;10259072;29;19929;-68
2022/03/06 18:36:41;;;;;;;;;;;;;;;2.77;54.26;101174.13;10258666;28;20025;-67
2022/03/06 18:41:47;;;;;;;;;;;;;;;2.68;54.67;101181.50;10258113;28;20311;-70
2022/03/06 18:46:50;;;;;;;;;;;;;;;2.74;54.25;101179.16;10258357;28;19933;-65
2022/03/06 18:51:53;;;;;;;;;;;;;;;2.83;52.95;101172.66;10257979;28;19926;-71
2022/03/06 18:56:59;;;;;;;;;;;;;;;2.52;53.32;101172.41;10257608;28;19922;-68
2022/03/06 19:02:02;;;;;;;;;;;;;;;2.56;53.03;101166.59;10257707;29;19922;-68
2022/03/06 19:07:11;;;;;;;;;;;;;;;2.64;53.12;101154.06;10257619;28;19957;-67
2022/03/06 19:12:17;;;;;;;;;;;;;;;2.61;53.76;101159.06;10257672;28;19926;-68
2022/03/06 19:17:20;;;;;;;;;;;;;;;2.61;52.61;101148.81;10240853;28;19923;-67
2022/03/06 19:22:23;;;;;;;;;;;;;;;2.43;53.58;101169.56;10217104;29;19926;-66
2022/03/06 19:27:28;;;;;;;;;;;;;;;2.56;52.75;101160.59;10217210;29;20240;-65
2022/03/06 19:32:31;;;;;;;;;;;;;;;2.56;52.11;101161.47;10216267;29;19922;-66
2022/03/06 19:37:34;;;;;;;;;;;;;;;2.21;52.33;101170.47;10216625;29;19926;-64
2022/03/06 19:42:39;;;;;;;;;;;;;;;2.19;53.66;101169.53;10216691;29;19923;-66
2022/03/06 19:47:43;;;;;;;;;;;;;;;2.10;53.12;101176.03;10216635;29;20229;-66
2022/03/06 19:52:47;;;;;;;;;;;;;;;2.20;53.39;101165.28;10216306;29;19927;-69
2022/03/06 19:57:51;;;;;;;;;;;;;;;2.33;52.64;101167.47;10215837;29;20266;-66
2022/03/06 20:02:54;;;;;;;;;;;;;;;2.33;52.95;101168.34;10215451;29;19926;-65
2022/03/06 20:07:57;;;;;;;;;;;;;;;2.30;54.02;101168.25;10215999;29;19922;-68
2022/03/06 20:13:02;;;;;;;;;;;;;;;2.35;53.31;101168.38;10215350;29;19926;-70
2022/03/06 20:18:05;;;;;;;;;;;;;;;2.35;53.48;101163.25;10236946;29;19923;-70
2022/03/06 20:23:08;;;;;;;;;;;;;;;2.34;53.72;101154.72;10265443;28;20243;-68
2022/03/06 20:28:12;;;;;;;;;;;;;;;2.26;53.48;101155.28;10294311;28;19922;-66
2022/03/06 20:33:25;;;;;;;;;;;;;;;2.33;54.51;101160.66;10294400;28;20271;-65
2022/03/06 20:38:28;;;;;;;;;;;;;;;2.42;53.92;101159.25;10294286;28;19961;-64
2022/03/06 20:43:35;;;;;;;;;;;;;;;2.45;53.80;101154.22;10293732;28;20331;-66
2022/03/06 20:48:38;;;;;;;;;;;;;;;2.42;53.98;101151.56;10293995;28;19922;-67
2022/03/06 20:53:41;;;;;;;;;;;;;;;2.27;54.33;101152.78;10293649;28;19922;-64
2022/03/06 20:58:47;;;;;;;;;;;;;;;2.21;55.19;101155.09;10293606;28;19922;-64
2022/03/06 21:03:50;;;;;;;;;;;;;;;2.08;55.53;101159.72;10293751;28;19929;-65
2022/03/06 21:08:53;;;;;;;;;;;;;;;2.26;55.71;101158.69;10294935;28;19922;-67
2022/03/06 21:13:58;;;;;;;;;;;;;;;2.20;55.08;101160.16;10292980;28;19922;-66
2022/03/06 21:19:01;;;;;;;;;;;;;;;2.09;56.67;101162.34;10290608;28;19976;-64
2022/03/06 21:24:04;;;;;;;;;;;;;;;2.08;56.67;101154.59;10253138;28;19933;-66
2022/03/06 21:29:09;;;;;;;;;;;;;;;2.17;56.43;101150.69;10252745;28;20339;-67
2022/03/06 21:34:12;;;;;;;;;;;;;;;2.00;56.93;101163.72;10253183;28;19926;-63
2022/03/06 21:39:15;;;;;;;;;;;;;;;2.03;57.88;101163.81;10253007;28;20013;-69
2022/03/06 21:44:19;;;;;;;;;;;;;;;2.15;57.92;101157.47;10252491;28;20270;-65
2022/03/06 21:49:22;;;;;;;;;;;;;;;2.05;59.93;101154.50;10252602;28;20331;-67
2022/03/06 21:54:26;;;;;;;;;;;;;;;2.10;58.52;101151.31;10256667;28;19922;-66
2022/03/06 21:59:30;;;;;;;;;;;;;;;2.07;59.95;101147.75;10259831;28;19933;-67
2022/03/06 22:04:33;;;;;;;;;;;;;;;2.16;58.51;101153.19;10259837;28;19922;-68
2022/03/06 22:09:36;;;;;;;;;;;;;;;1.92;59.96;101145.50;10259155;28;19937;-67
2022/03/06 22:14:42;;;;;;;;;;;;;;;1.94;59.76;101146.44;10259112;28;19949;-65
2022/03/06 22:19:45;;;;;;;;;;;;;;;2.01;60.85;101142.41;10251354;28;20034;-69
2022/03/06 22:24:48;;;;;;;;;;;;;;;2.12;59.82;101136.84;10219191;29;20393;-67
2022/03/06 22:29:53;;;;;;;;;;;;;;;2.10;61.59;101143.63;10219360;29;19933;-68
2022/03/06 22:34:56;;;;;;;;;;;;;;;2.16;59.92;101142.94;10219028;29;19927;-68
2022/03/06 22:40:00;;;;;;;;;;;;;;;2.17;60.63;101148.13;10218973;29;19923;-66
2022/03/06 22:45:05;;;;;;;;;;;;;;;2.09;60.27;101146.97;10218662;29;19933;-65
2022/03/06 22:50:11;;;;;;;;;;;;;;;2.10;60.86;101153.84;10218519;29;19986;-66
2022/03/06 22:55:14;;;;;;;;;;;;;;;2.11;61.58;101145.34;10218088;29;20021;-68
2022/03/06 23:00:33;;;;;;;;;;;;;;;2.06;61.73;101141.75;10218202;29;20385;-65
2022/03/06 23:10:59;;;;;;;;;;;;;;;2.11;62.98;101131.66;10218086;29;20327;-65
2022/03/06 23:16:02;;;;;;;;;;;;;;;2.09;62.22;101131.63;10217478;29;19926;-66
2022/03/06 23:21:07;;;;;;;;;;;;;;;2.08;62.77;101137.56;10217613;29;19923;-67
2022/03/06 23:26:10;;;;;;;;;;;;;;;2.06;64.08;101140.88;10229054;29;20002;-65
2022/03/06 23:31:13;;;;;;;;;;;;;;;2.09;63.42;101144.41;10256800;28;19929;-66
2022/03/06 23:36:18;;;;;;;;;;;;;;;2.13;63.12;101141.16;10256706;28;19933;-68
2022/03/06 23:41:21;;;;;;;;;;;;;;;1.94;64.17;101148.09;10256483;28;19922;-67
2022/03/06 23:46:26;;;;;;;;;;;;;;;2.02;64.32;101150.13;10255977;28;20022;-65
2022/03/06 23:51:30;;;;;;;;;;;;;;;1.98;65.17;101144.84;10255935;28;19996;-67
2022/03/06 23:56:33;;;;;;;;;;;;;;;1.95;66.05;101149.88;10255649;28;19922;-64
